createdAt,value
2019-01-03T00:01:04.420Z,99.99
2019-01-03T00:02:14.506Z,99.99
2019-01-03T00:03:24.608Z,99.99
2019-01-03T00:04:34.700Z,99.99
2019-01-03T00:05:44.765Z,99.99
2019-01-03T00:06:54.822Z,99.99
2019-01-03T00:08:04.640Z,99.99
2019-01-03T00:09:14.723Z,99.99
2019-01-03T00:10:24.796Z,99.99
2019-01-03T00:11:34.892Z,99.99
2019-01-03T00:12:44.980Z,99.99
2019-01-03T00:13:55.050Z,99.99
2019-01-03T00:15:05.126Z,99.99
2019-01-03T00:16:15.241Z,99.99
2019-01-03T00:17:25.318Z,99.99
2019-01-03T00:18:35.391Z,99.99
2019-01-03T00:19:45.479Z,99.99
2019-01-03T00:20:55.554Z,99.99
2019-01-03T00:22:05.616Z,99.99
2019-01-03T00:23:15.673Z,99.99
2019-01-03T00:24:25.488Z,99.99
2019-01-03T00:25:35.569Z,99.99
2019-01-03T00:26:45.617Z,99.99
2019-01-03T00:28:01.553Z,99.99
2019-01-03T00:29:11.692Z,99.99
2019-01-03T00:30:21.793Z,99.99
2019-01-03T00:31:31.871Z,99.99
2019-01-03T00:32:41.936Z,99.99
2019-01-03T00:33:52.056Z,99.99
2019-01-03T00:35:02.099Z,99.99
2019-01-03T00:36:12.149Z,99.99
2019-01-03T00:37:22.222Z,99.99
2019-01-03T00:38:32.028Z,99.99
2019-01-03T00:39:42.078Z,99.99
2019-01-03T00:40:52.130Z,99.99
2019-01-03T00:42:01.928Z,99.99
2019-01-03T00:43:12.001Z,99.99
2019-01-03T00:44:21.804Z,99.99
2019-01-03T00:45:31.877Z,99.99
2019-01-03T00:46:41.967Z,99.99
2019-01-03T00:47:52.030Z,99.99
2019-01-03T00:49:01.835Z,99.99
2019-01-03T00:50:11.876Z,99.99
2019-01-03T00:51:21.976Z,99.99
2019-01-03T00:52:32.022Z,99.99
2019-01-03T00:53:41.839Z,99.99
2019-01-03T00:54:51.901Z,99.99
2019-01-03T00:56:01.969Z,99.99
2019-01-03T00:57:12.047Z,99.99
2019-01-03T00:58:21.843Z,99.99
2019-01-03T00:59:31.902Z,99.99
2019-01-03T01:00:41.701Z,99.99
2019-01-03T01:01:51.742Z,99.99
2019-01-03T01:03:01.531Z,99.99
2019-01-03T01:04:11.092Z,99.99
2019-01-03T01:05:20.916Z,99.99
2019-01-03T01:06:31.007Z,99.99
2019-01-03T01:07:41.087Z,99.99
2019-01-03T01:08:51.160Z,99.99
2019-01-03T01:10:01.741Z,99.99
2019-01-03T01:11:11.795Z,99.99
2019-01-03T01:12:21.858Z,99.99
2019-01-03T01:13:31.899Z,99.99
2019-01-03T01:14:41.705Z,99.99
2019-01-03T01:15:51.758Z,99.99
2019-01-03T01:17:02.564Z,99.99
2019-01-03T01:18:12.377Z,99.99
2019-01-03T01:19:22.178Z,99.99
2019-01-03T01:20:32.701Z,99.99
2019-01-03T01:21:42.754Z,99.99
2019-01-03T01:22:52.828Z,99.99
2019-01-03T01:24:02.898Z,99.99
2019-01-03T01:25:12.710Z,99.99
2019-01-03T01:26:22.756Z,99.99
2019-01-03T01:27:32.820Z,99.99
2019-01-03T01:28:42.627Z,99.99
2019-01-03T01:29:52.420Z,99.99
2019-01-03T01:31:02.499Z,99.99
2019-01-03T01:32:12.563Z,99.99
2019-01-03T01:33:22.635Z,99.99
2019-01-03T01:34:32.707Z,99.99
2019-01-03T01:35:42.537Z,99.99
2019-01-03T01:36:52.627Z,99.99
2019-01-03T01:38:03.286Z,99.99
2019-01-03T01:39:13.094Z,99.99
2019-01-03T01:40:23.141Z,99.99
2019-01-03T01:41:33.200Z,99.99
2019-01-03T01:42:43.270Z,99.99
2019-01-03T01:43:53.332Z,99.99
2019-01-03T01:45:03.404Z,99.99
2019-01-03T01:46:13.464Z,99.99
2019-01-03T01:47:23.550Z,99.99
2019-01-03T01:48:33.412Z,99.99
2019-01-03T01:49:43.474Z,99.99
2019-01-03T01:50:53.528Z,99.99
2019-01-03T01:52:03.615Z,99.99
2019-01-03T01:53:13.685Z,99.99
2019-01-03T01:54:23.764Z,99.99
2019-01-03T01:55:33.836Z,99.99
2019-01-03T01:56:43.907Z,99.99
2019-01-03T01:57:53.965Z,99.99
2019-01-03T01:59:04.235Z,99.99
2019-01-03T02:00:14.479Z,99.99
2019-01-03T02:01:24.727Z,99.99
2019-01-03T02:02:34.518Z,99.99
2019-01-03T02:03:44.326Z,99.99
2019-01-03T02:04:54.391Z,99.99
2019-01-03T02:06:04.464Z,99.99
2019-01-03T02:07:14.560Z,99.99
2019-01-03T02:08:24.350Z,99.99
2019-01-03T02:09:34.141Z,99.99
2019-01-03T02:10:44.201Z,99.99
2019-01-03T02:11:54.258Z,99.99
2019-01-03T02:13:04.075Z,99.99
2019-01-03T02:14:14.138Z,99.99
2019-01-03T02:15:24.942Z,99.99
2019-01-03T02:16:34.995Z,99.99
2019-01-03T02:17:45.041Z,99.99
2019-01-03T02:18:54.864Z,99.99
2019-01-03T02:20:04.950Z,99.99
2019-01-03T02:21:15.110Z,99.99
2019-01-03T02:22:25.155Z,99.99
2019-01-03T02:23:35.210Z,99.99
2019-01-03T02:24:45.263Z,99.99
2019-01-03T02:25:55.059Z,99.99
2019-01-03T02:27:05.121Z,99.99
2019-01-03T02:28:15.177Z,99.99
2019-01-03T02:29:25.253Z,99.99
2019-01-03T02:30:35.057Z,99.99
2019-01-03T02:31:45.149Z,99.99
2019-01-03T02:32:54.959Z,99.99
2019-01-03T02:34:05.036Z,99.99
2019-01-03T02:35:14.929Z,99.99
2019-01-03T02:36:24.993Z,99.99
2019-01-03T02:37:35.031Z,99.99
2019-01-03T02:38:45.077Z,99.99
2019-01-03T02:39:54.856Z,99.99
2019-01-03T02:41:04.948Z,99.99
2019-01-03T02:42:14.750Z,99.99
2019-01-03T02:43:24.825Z,99.99
2019-01-03T02:44:34.625Z,99.99
2019-01-03T02:45:44.446Z,99.99
2019-01-03T02:46:54.494Z,99.99
2019-01-03T02:48:04.378Z,99.99
2019-01-03T02:49:14.426Z,99.99
2019-01-03T02:50:24.223Z,99.99
2019-01-03T02:51:34.291Z,99.99
2019-01-03T02:52:44.101Z,99.99
2019-01-03T02:53:53.635Z,99.99
2019-01-03T02:55:03.719Z,99.99
2019-01-03T02:56:13.758Z,99.99
2019-01-03T02:57:23.553Z,99.99
2019-01-03T02:58:33.625Z,99.99
2019-01-03T02:59:43.688Z,99.99
2019-01-03T03:00:53.751Z,99.99
2019-01-03T03:02:03.794Z,99.99
2019-01-03T03:34:44.454Z,94.03
2019-01-03T03:35:54.244Z,93.94
2019-01-03T03:37:05.074Z,94.6
2019-01-03T03:38:15.114Z,95.17
2019-01-03T03:39:25.178Z,96.3
2019-01-03T03:40:35.291Z,97.3
2019-01-03T03:41:45.368Z,98.14
2019-01-03T03:42:54.910Z,98.71
2019-01-03T03:44:04.737Z,99.09
2019-01-03T03:45:14.531Z,99.47
2019-01-03T03:46:24.618Z,99.99
2019-01-03T03:47:34.683Z,99.99
2019-01-03T03:48:44.505Z,99.99
2019-01-03T03:49:54.552Z,99.99
2019-01-03T03:51:04.648Z,99.99
2019-01-03T03:52:14.776Z,99.99
2019-01-03T03:53:24.851Z,99.99
2019-01-03T03:54:34.932Z,99.99
2019-01-03T03:55:44.997Z,99.99
2019-01-03T03:56:55.082Z,99.99
2019-01-03T03:58:05.126Z,99.99
2019-01-03T03:59:15.194Z,99.99
2019-01-03T04:00:25.296Z,99.99
2019-01-03T04:01:35.379Z,99.99
2019-01-03T04:02:45.462Z,99.99
2019-01-03T04:03:55.521Z,99.99
2019-01-03T04:05:06.593Z,99.99
2019-01-03T04:06:16.165Z,99.99
2019-01-03T04:07:25.973Z,99.99
2019-01-03T04:08:36.048Z,99.99
2019-01-03T04:09:46.014Z,99.99
2019-01-03T04:10:56.074Z,99.99
2019-01-03T04:12:05.989Z,99.99
2019-01-03T04:13:16.076Z,99.99
2019-01-03T04:14:26.118Z,99.99
2019-01-03T04:15:36.216Z,99.99
2019-01-03T04:16:46.052Z,99.99
2019-01-03T04:17:56.124Z,99.99
2019-01-03T04:19:06.443Z,99.99
2019-01-03T04:20:16.235Z,99.99
2019-01-03T04:21:26.325Z,99.99
2019-01-03T04:22:36.382Z,99.99
2019-01-03T04:23:46.523Z,99.99
2019-01-03T04:24:56.338Z,99.99
2019-01-03T04:26:06.404Z,99.99
2019-01-03T04:27:16.548Z,99.99
2019-01-03T04:28:26.628Z,99.99
2019-01-03T04:29:36.434Z,99.99
2019-01-03T04:30:46.245Z,99.99
2019-01-03T04:31:56.312Z,99.99
2019-01-03T04:33:06.371Z,99.99
2019-01-03T04:34:16.466Z,99.99
2019-01-03T04:35:26.512Z,99.99
2019-01-03T04:36:36.052Z,99.99
2019-01-03T04:37:46.104Z,99.99
2019-01-03T04:38:55.895Z,99.99
2019-01-03T04:40:05.800Z,99.99
2019-01-03T04:41:15.897Z,99.99
2019-01-03T04:42:25.958Z,99.99
2019-01-03T04:43:36.032Z,99.99
2019-01-03T04:44:46.148Z,99.99
2019-01-03T04:45:56.235Z,99.99
2019-01-03T04:47:06.312Z,99.99
2019-01-03T04:48:16.372Z,99.99
2019-01-03T04:49:26.452Z,99.99
2019-01-03T04:50:36.243Z,99.99
2019-01-03T04:51:46.313Z,99.99
2019-01-03T04:52:56.384Z,99.99
2019-01-03T04:54:06.435Z,99.99
2019-01-03T04:55:16.504Z,99.99
2019-01-03T04:56:26.565Z,99.99
2019-01-03T04:57:36.639Z,99.99
2019-01-03T04:58:46.194Z,99.99
2019-01-03T04:59:56.260Z,99.99
2019-01-03T05:01:06.984Z,99.99
2019-01-03T05:02:16.864Z,99.99
2019-01-03T05:03:26.930Z,99.99
2019-01-03T05:04:36.990Z,99.99
2019-01-03T05:05:47.072Z,99.99
2019-01-03T05:06:57.129Z,99.99
2019-01-03T05:08:07.186Z,99.99
2019-01-03T05:09:17.237Z,99.99
2019-01-03T05:10:27.321Z,99.99
2019-01-03T05:11:37.377Z,99.99
2019-01-03T05:12:47.433Z,99.99
2019-01-03T05:13:57.503Z,99.99
2019-01-03T05:15:07.612Z,99.99
2019-01-03T05:16:17.699Z,99.99
2019-01-03T05:17:27.774Z,99.99
2019-01-03T05:18:37.605Z,99.99
2019-01-03T05:19:47.725Z,99.99
2019-01-03T05:20:57.791Z,99.99
2019-01-03T05:22:07.647Z,99.99
2019-01-03T05:23:17.727Z,99.99
2019-01-03T05:24:27.798Z,99.99
2019-01-03T05:25:37.876Z,99.99
2019-01-03T05:26:47.957Z,99.99
2019-01-03T05:27:58.024Z,99.99
2019-01-03T05:29:08.219Z,99.99
2019-01-03T05:30:20.629Z,99.99
2019-01-03T05:31:30.439Z,99.99
2019-01-03T05:32:40.509Z,99.99
2019-01-03T05:33:50.566Z,99.99
2019-01-03T05:35:02.247Z,99.99
2019-01-03T05:36:12.332Z,99.99
2019-01-03T05:37:22.391Z,99.99
2019-01-03T05:38:32.460Z,99.99
2019-01-03T05:39:42.527Z,99.99
2019-01-03T05:40:52.388Z,99.99
2019-01-03T05:42:02.539Z,99.99
2019-01-03T05:43:12.675Z,99.99
2019-01-03T05:44:22.741Z,99.99
2019-01-03T05:45:32.812Z,99.99
2019-01-03T05:46:42.873Z,99.99
2019-01-03T05:47:52.941Z,99.99
2019-01-03T05:49:03.052Z,99.99
2019-01-03T05:50:12.866Z,99.99
2019-01-03T05:51:22.934Z,99.99
2019-01-03T05:52:33.050Z,99.99
2019-01-03T05:53:43.123Z,99.99
2019-01-03T05:54:53.198Z,99.99
2019-01-03T05:56:02.995Z,99.99
2019-01-03T05:57:12.807Z,99.99
2019-01-03T05:58:22.875Z,99.99
2019-01-03T05:59:32.937Z,99.99
2019-01-03T06:00:43.005Z,99.99
2019-01-03T06:01:53.082Z,99.99
2019-01-03T06:03:03.685Z,99.99
2019-01-03T06:04:13.754Z,99.99
2019-01-03T06:05:23.814Z,99.99
2019-01-03T06:06:33.680Z,99.99
2019-01-03T06:07:43.756Z,99.99
2019-01-03T06:08:53.566Z,99.99
2019-01-03T06:10:03.742Z,99.99
2019-01-03T06:11:13.819Z,99.99
2019-01-03T06:12:23.623Z,99.99
2019-01-03T06:13:33.677Z,99.99
2019-01-03T06:14:43.742Z,99.99
2019-01-03T06:15:53.548Z,99.99
2019-01-03T06:17:03.358Z,99.99
2019-01-03T06:18:13.413Z,99.99
2019-01-03T06:19:23.495Z,99.99
2019-01-03T06:20:33.546Z,99.99
2019-01-03T06:21:43.604Z,99.99
2019-01-03T06:22:53.659Z,99.99
2019-01-03T06:24:03.468Z,99.99
2019-01-03T06:25:13.542Z,99.99
2019-01-03T06:26:23.626Z,99.99
2019-01-03T06:27:33.710Z,99.99
2019-01-03T06:28:43.512Z,99.99
2019-01-03T06:29:53.611Z,99.99
2019-01-03T06:31:03.657Z,99.99
2019-01-03T06:32:13.718Z,99.99
2019-01-03T06:33:23.549Z,99.99
2019-01-03T06:34:33.634Z,99.99
2019-01-03T06:35:43.791Z,99.99
2019-01-03T06:36:53.850Z,99.99
2019-01-03T06:38:03.932Z,99.99
2019-01-03T06:39:13.997Z,99.99
2019-01-03T06:40:24.041Z,99.99
2019-01-03T06:41:34.090Z,99.99
2019-01-03T06:42:44.154Z,99.99
2019-01-03T06:43:54.688Z,99.99
2019-01-03T06:45:04.763Z,99.99
2019-01-03T06:46:14.835Z,99.99
2019-01-03T06:47:24.900Z,99.99
2019-01-03T06:48:34.960Z,99.99
2019-01-03T06:49:45.023Z,99.99
2019-01-03T06:50:55.068Z,99.99
2019-01-03T06:52:04.866Z,99.99
2019-01-03T06:53:14.906Z,99.99
2019-01-03T06:54:24.700Z,99.99
2019-01-03T06:55:34.761Z,99.99
2019-01-03T06:56:44.811Z,99.99
2019-01-03T06:57:54.875Z,99.99
2019-01-03T06:59:05.533Z,99.99
2019-01-03T07:00:15.858Z,99.99
2019-01-03T07:01:26.067Z,99.99
2019-01-03T07:02:36.131Z,99.99
2019-01-03T07:03:46.209Z,99.99
2019-01-03T07:04:56.275Z,99.99
2019-01-03T07:06:06.339Z,99.99
2019-01-03T07:07:16.386Z,99.99
2019-01-03T07:08:26.450Z,99.99
2019-01-03T07:09:36.510Z,99.99
2019-01-03T07:10:46.309Z,99.99
2019-01-03T07:11:56.378Z,99.99
2019-01-03T07:13:06.161Z,99.99
2019-01-03T07:14:16.224Z,99.99
2019-01-03T07:15:26.292Z,99.99
2019-01-03T07:16:36.374Z,99.99
2019-01-03T07:17:46.444Z,99.99
2019-01-03T07:18:56.506Z,99.99
2019-01-03T07:20:06.572Z,99.99
2019-01-03T07:21:16.625Z,99.99
2019-01-03T07:22:32.504Z,99.99
2019-01-03T07:23:42.554Z,99.99
2019-01-03T07:24:52.359Z,99.99
2019-01-03T07:26:02.415Z,99.99
2019-01-03T07:27:12.476Z,99.99
2019-01-03T07:28:22.523Z,99.99
2019-01-03T07:29:32.579Z,99.99
2019-01-03T07:30:42.647Z,99.99
2019-01-03T07:31:52.732Z,99.99
2019-01-03T07:33:04.894Z,99.99
2019-01-03T07:34:14.960Z,99.99
2019-01-03T07:35:24.764Z,99.99
2019-01-03T07:36:34.566Z,99.99
2019-01-03T07:37:44.359Z,99.99
2019-01-03T07:38:54.430Z,99.99
2019-01-03T07:40:04.488Z,99.99
2019-01-03T07:41:14.543Z,99.99
2019-01-03T07:42:24.611Z,99.99
2019-01-03T07:43:34.690Z,99.99
2019-01-03T07:44:44.242Z,99.99
2019-01-03T07:45:54.346Z,99.99
2019-01-03T07:47:04.405Z,99.99
2019-01-03T07:48:14.483Z,99.99
2019-01-03T07:49:24.544Z,99.99
2019-01-03T07:50:34.603Z,99.99
2019-01-03T07:51:44.747Z,99.99
2019-01-03T07:52:54.830Z,99.99
2019-01-03T07:54:04.875Z,99.99
2019-01-03T07:55:14.679Z,99.99
2019-01-03T07:56:24.741Z,99.99
2019-01-03T07:57:34.807Z,99.99
2019-01-03T07:58:44.862Z,99.99
2019-01-03T07:59:54.659Z,99.99
2019-01-03T08:01:04.268Z,99.99
2019-01-03T08:02:14.338Z,99.99
2019-01-03T08:03:24.402Z,99.99
2019-01-03T08:04:34.202Z,99.9
2019-01-03T08:05:44.274Z,99.86
2019-01-03T08:06:54.329Z,99.99
2019-01-03T08:08:04.410Z,99.99
2019-01-03T08:09:14.462Z,99.96
2019-01-03T08:10:24.502Z,99.86
2019-01-03T08:11:34.567Z,99.58
2019-01-03T08:12:44.437Z,99.86
2019-01-03T08:13:54.221Z,99.77
2019-01-03T08:15:04.947Z,99.99
2019-01-03T08:16:15.004Z,99.99
2019-01-03T08:17:25.050Z,99.99
2019-01-03T08:18:35.113Z,99.99
2019-01-03T08:19:45.174Z,99.99
2019-01-03T08:20:55.290Z,99.99
2019-01-03T08:22:05.098Z,99.99
2019-01-03T08:23:15.166Z,99.99
2019-01-03T08:24:24.959Z,99.99
2019-01-03T08:25:35.042Z,99.58
2019-01-03T08:26:44.848Z,99.67
2019-01-03T08:27:54.900Z,99.67
2019-01-03T08:29:04.991Z,99.77
2019-01-03T08:30:15.044Z,99.48
2019-01-03T08:31:25.086Z,99.48
2019-01-03T08:32:35.163Z,99.77
2019-01-03T08:33:45.222Z,99.58
2019-01-03T08:34:55.030Z,99.67
2019-01-03T08:36:05.095Z,99.99
2019-01-03T08:37:15.209Z,99.99
2019-01-03T08:38:24.790Z,99.99
2019-01-03T08:39:34.599Z,99.99
2019-01-03T08:40:44.654Z,99.99
2019-01-03T08:41:54.471Z,99.99
2019-01-03T08:43:04.283Z,99.77
2019-01-03T08:44:14.139Z,99.48
2019-01-03T08:45:23.954Z,99.77
2019-01-03T08:46:34.020Z,99.58
2019-01-03T08:47:44.093Z,99.67
2019-01-03T08:49:00.329Z,99.58
2019-01-03T08:50:10.617Z,99.86
2019-01-03T08:51:20.429Z,99.77
2019-01-03T08:52:30.506Z,99.58
2019-01-03T08:53:40.575Z,99.77
2019-01-03T08:54:50.378Z,99.77
2019-01-03T08:56:01.331Z,99.77
2019-01-03T08:57:11.398Z,99.48
2019-01-03T08:58:21.212Z,99.48
2019-01-03T08:59:31.258Z,99.77
2019-01-03T09:00:40.803Z,99.77
2019-01-03T09:01:50.609Z,99.67
2019-01-03T09:03:00.656Z,99.86
2019-01-03T09:04:10.710Z,99.82
2019-01-03T09:05:20.773Z,99.77
2019-01-03T09:06:30.824Z,99.82
2019-01-03T09:07:40.884Z,99.86
2019-01-03T09:08:50.953Z,99.99
2019-01-03T09:10:01.201Z,99.48
2019-01-03T09:11:11.268Z,99.34
2019-01-03T09:12:20.828Z,99.44
2019-01-03T09:13:30.868Z,99.63
2019-01-03T09:14:40.934Z,99.44
2019-01-03T09:15:51.000Z,99.15
2019-01-03T09:17:01.079Z,99.44
2019-01-03T09:18:12.854Z,98.96
2019-01-03T09:19:22.718Z,99.25
2019-01-03T09:20:32.814Z,99.44
2019-01-03T09:21:42.883Z,99.44
2019-01-03T09:22:52.939Z,99.25
2019-01-03T09:24:03.115Z,99.06
2019-01-03T09:25:12.922Z,99.34
2019-01-03T09:26:22.986Z,99.53
2019-01-03T09:27:33.022Z,99.91
2019-01-03T09:28:43.075Z,99.82
2019-01-03T09:29:53.170Z,99.72
2019-01-03T09:31:04.381Z,99.99
2019-01-03T09:32:14.460Z,99.99
2019-01-03T09:33:24.570Z,99.82
2019-01-03T09:34:34.379Z,99.99
2019-01-03T09:35:45.111Z,98.96
2019-01-03T09:36:54.914Z,98.96
2019-01-03T09:38:04.750Z,98.54
2019-01-03T09:39:14.821Z,98.63
2019-01-03T09:40:24.897Z,98.07
2019-01-03T09:41:34.764Z,97.97
2019-01-03T09:42:44.812Z,97.88
2019-01-03T09:43:54.606Z,98.21
2019-01-03T09:45:04.477Z,98.16
2019-01-03T09:46:14.531Z,98.44
2019-01-03T09:47:24.143Z,98.54
2019-01-03T09:48:34.198Z,98.25
2019-01-03T09:49:44.256Z,98.92
2019-01-03T09:50:53.818Z,99.01
2019-01-03T09:52:03.877Z,99.01
2019-01-03T09:53:13.988Z,99.3
2019-01-03T09:54:23.843Z,99.11
2019-01-03T09:55:33.651Z,99.49
2019-01-03T09:56:43.698Z,99.2
2019-01-03T09:57:53.757Z,99.39
2019-01-03T09:59:03.809Z,99.39
2019-01-03T10:00:14.029Z,99.39
2019-01-03T10:01:24.227Z,99.99
2019-01-03T10:02:34.320Z,99.91
2019-01-03T10:03:44.445Z,99.87
2019-01-03T10:04:54.245Z,99.87
2019-01-03T10:06:04.307Z,99.96
2019-01-03T10:07:14.425Z,99.99
2019-01-03T10:08:24.469Z,99.99
2019-01-03T10:09:34.273Z,99.96
2019-01-03T10:10:44.321Z,99.99
2019-01-03T10:11:54.380Z,99.87
2019-01-03T10:13:04.436Z,99.72
2019-01-03T10:14:14.498Z,99.91
2019-01-03T10:15:24.568Z,99.91
2019-01-03T10:16:34.610Z,99.49
2019-01-03T10:17:44.663Z,99.01
2019-01-03T10:18:54.711Z,98.92
2019-01-03T10:20:04.796Z,98.35
2019-01-03T10:21:14.578Z,98.44
2019-01-03T10:22:24.629Z,98.44
2019-01-03T10:23:34.703Z,98.25
2019-01-03T10:24:44.788Z,98.49
2019-01-03T10:25:54.856Z,98.3
2019-01-03T10:27:04.938Z,98.49
2019-01-03T10:28:15.082Z,98.21
2019-01-03T10:29:25.149Z,98.49
2019-01-03T10:30:35.225Z,98.68
2019-01-03T10:31:45.030Z,98.97
2019-01-03T10:32:54.822Z,98.49
2019-01-03T10:34:04.867Z,98.97
2019-01-03T10:35:14.418Z,99.39
2019-01-03T10:36:27.541Z,99.06
2019-01-03T10:37:37.690Z,99.49
2019-01-03T10:38:47.765Z,99.39
2019-01-03T10:39:57.882Z,99.68
2019-01-03T10:41:08.005Z,99.2
2019-01-03T10:42:18.049Z,99.49
2019-01-03T10:43:27.846Z,99.58
2019-01-03T10:44:37.918Z,99.11
2019-01-03T10:45:47.727Z,99.11
2019-01-03T10:46:57.286Z,99.49
2019-01-03T10:48:07.378Z,99.01
2019-01-03T10:49:17.462Z,99.49
2019-01-03T10:50:27.026Z,98.87
2019-01-03T10:51:37.189Z,98.59
2019-01-03T10:52:47.273Z,98.59
2019-01-03T10:53:57.079Z,98.59
2019-01-03T10:55:07.716Z,98.21
2019-01-03T10:56:17.785Z,98.97
2019-01-03T10:57:27.921Z,99.01
2019-01-03T10:58:37.993Z,99.3
2019-01-03T10:59:48.065Z,99.58
2019-01-03T11:00:58.460Z,99.99
2019-01-03T11:02:08.278Z,99.77
2019-01-03T11:03:18.119Z,99.99
2019-01-03T11:04:28.198Z,99.99
2019-01-03T11:05:38.259Z,99.99
2019-01-03T11:06:48.349Z,99.68
2019-01-03T11:07:58.412Z,99.58
2019-01-03T11:09:08.519Z,99.99
2019-01-03T11:10:18.599Z,99.99
2019-01-03T11:11:28.682Z,99.99
2019-01-03T11:12:38.516Z,99.99
2019-01-03T11:13:48.315Z,99.99
2019-01-03T11:14:58.387Z,99.99
2019-01-03T11:16:08.439Z,99.99
2019-01-03T11:17:18.500Z,99.99
2019-01-03T11:18:28.551Z,99.99
2019-01-03T11:19:38.609Z,99.99
2019-01-03T11:20:48.655Z,99.99
2019-01-03T11:21:58.478Z,99.99
2019-01-03T11:23:08.549Z,99.99
2019-01-03T11:24:18.336Z,99.99
2019-01-03T11:25:28.411Z,99.99
2019-01-03T11:26:38.533Z,99.99
2019-01-03T11:27:48.583Z,99.99
2019-01-03T11:28:58.402Z,99.99
2019-01-03T11:30:07.959Z,99.99
2019-01-03T11:31:18.038Z,99.99
2019-01-03T11:32:28.098Z,99.99
2019-01-03T11:33:38.156Z,99.34
2019-01-03T11:34:48.214Z,99.39
2019-01-03T11:35:58.321Z,98.92
2019-01-03T11:37:08.370Z,99.01
2019-01-03T11:38:18.427Z,99.11
2019-01-03T11:39:28.506Z,99.58
2019-01-03T11:40:38.579Z,99.53
2019-01-03T11:41:48.671Z,99.99
2019-01-03T11:42:58.739Z,99.99
2019-01-03T11:44:08.809Z,99.99
2019-01-03T11:45:18.877Z,99.99
2019-01-03T11:46:28.677Z,99.99
2019-01-03T11:47:38.786Z,99.99
2019-01-03T11:48:48.878Z,99.99
2019-01-03T11:49:59.034Z,99.99
2019-01-03T11:51:09.093Z,99.99
2019-01-03T11:52:18.887Z,99.99
2019-01-03T11:53:28.460Z,99.99
2019-01-03T11:54:38.000Z,99.99
2019-01-03T11:55:47.558Z,99.99
2019-01-03T11:56:57.118Z,99.99
2019-01-03T11:58:07.180Z,99.99
2019-01-03T11:59:17.253Z,99.99
2019-01-03T12:00:27.349Z,99.99
2019-01-03T12:01:37.435Z,99.99
2019-01-03T12:02:47.529Z,99.99
2019-01-03T12:03:57.608Z,99.99
2019-01-03T12:05:07.978Z,99.99
2019-01-03T12:06:17.801Z,99.99
2019-01-03T12:07:27.606Z,99.99
2019-01-03T12:08:37.144Z,99.99
2019-01-03T12:09:47.211Z,99.99
2019-01-03T12:10:57.277Z,99.99
2019-01-03T12:12:07.778Z,99.99
2019-01-03T12:13:17.842Z,99.99
2019-01-03T12:14:27.908Z,99.99
2019-01-03T12:15:37.707Z,99.82
2019-01-03T12:16:47.524Z,99.91
2019-01-03T12:17:57.310Z,99.91
2019-01-03T12:19:07.481Z,99.82
2019-01-03T12:20:17.597Z,99.91
2019-01-03T12:21:27.682Z,99.91
2019-01-03T12:22:37.766Z,99.53
2019-01-03T12:23:47.831Z,99.99
2019-01-03T12:24:57.909Z,99.82
2019-01-03T12:26:08.038Z,99.91
2019-01-03T12:27:17.859Z,99.99
2019-01-03T12:28:27.945Z,99.99
2019-01-03T12:29:38.036Z,99.99
2019-01-03T12:30:47.852Z,99.99
2019-01-03T12:31:57.660Z,99.99
2019-01-03T12:33:07.755Z,99.99
2019-01-03T12:34:17.845Z,99.99
2019-01-03T12:35:27.645Z,99.99
2019-01-03T12:36:37.724Z,99.99
2019-01-03T12:37:47.795Z,99.99
2019-01-03T12:38:57.850Z,99.99
2019-01-03T12:40:07.910Z,99.99
2019-01-03T12:41:17.747Z,99.99
2019-01-03T12:42:27.833Z,99.99
2019-01-03T12:43:37.903Z,99.99
2019-01-03T12:44:47.464Z,99.99
2019-01-03T12:45:57.269Z,99.99
2019-01-03T12:47:07.339Z,99.99
2019-01-03T12:48:17.391Z,99.99
2019-01-03T12:49:27.536Z,99.99
2019-01-03T12:50:37.625Z,99.99
2019-01-03T12:51:47.671Z,99.99
2019-01-03T12:52:57.762Z,99.99
2019-01-03T12:54:10.025Z,99.99
2019-01-03T12:55:20.135Z,99.99
2019-01-03T12:56:30.189Z,99.99
2019-01-03T12:57:40.277Z,99.99
2019-01-03T12:58:50.351Z,99.99
2019-01-03T13:00:01.003Z,99.99
2019-01-03T13:01:11.544Z,99.99
2019-01-03T13:02:21.626Z,99.99
2019-01-03T13:03:31.419Z,99.99
2019-01-03T13:04:41.525Z,99.99
2019-01-03T13:05:51.632Z,99.99
2019-01-03T13:07:01.722Z,99.99
2019-01-03T13:08:11.794Z,99.99
2019-01-03T13:09:21.874Z,99.99
2019-01-03T13:10:31.937Z,99.99
2019-01-03T13:11:41.530Z,99.99
2019-01-03T13:12:51.570Z,99.99
2019-01-03T13:14:01.641Z,99.99
2019-01-03T13:15:11.710Z,99.99
2019-01-03T13:16:21.786Z,99.99
2019-01-03T13:17:31.608Z,99.99
2019-01-03T13:18:41.691Z,99.99
2019-01-03T13:19:51.555Z,99.99
2019-01-03T13:21:02.341Z,99.99
2019-01-03T13:22:12.422Z,99.99
2019-01-03T13:23:22.489Z,99.99
2019-01-03T13:24:32.593Z,99.99
2019-01-03T13:25:42.649Z,99.99
2019-01-03T13:26:52.472Z,99.99
2019-01-03T13:28:02.563Z,99.99
2019-01-03T13:29:12.631Z,99.99
2019-01-03T13:30:22.683Z,99.99
2019-01-03T13:31:32.750Z,99.99
2019-01-03T13:32:42.802Z,99.99
2019-01-03T13:33:52.874Z,99.99
2019-01-03T13:35:04.788Z,99.99
2019-01-03T13:36:14.866Z,99.99
2019-01-03T13:37:24.930Z,99.99
2019-01-03T13:38:34.998Z,99.86
2019-01-03T13:39:45.066Z,99.99
2019-01-03T13:40:55.127Z,99.58
2019-01-03T13:42:05.190Z,99.99
2019-01-03T13:43:14.976Z,99.99
2019-01-03T13:44:25.053Z,99.99
2019-01-03T13:45:35.139Z,99.99
2019-01-03T13:46:45.228Z,99.99
2019-01-03T13:47:55.345Z,99.99
2019-01-03T13:49:05.394Z,99.99
2019-01-03T13:50:15.456Z,99.77
2019-01-03T13:51:25.513Z,99.86
2019-01-03T13:52:35.324Z,99.96
2019-01-03T13:53:45.421Z,99.99
2019-01-03T13:54:55.219Z,99.99
2019-01-03T13:56:05.009Z,99.99
2019-01-03T13:57:15.061Z,99.96
2019-01-03T13:58:24.871Z,99.58
2019-01-03T13:59:34.944Z,99.86
2019-01-03T14:00:45.046Z,99.99
2019-01-03T14:01:54.848Z,99.99
2019-01-03T14:03:04.665Z,99.99
2019-01-03T14:04:14.745Z,99.96
2019-01-03T14:05:24.826Z,99.99
2019-01-03T14:06:34.883Z,99.99
2019-01-03T14:07:44.962Z,99.99
2019-01-03T14:08:55.043Z,99.99
2019-01-03T14:10:05.127Z,99.99
2019-01-03T14:11:15.269Z,99.99
2019-01-03T14:12:25.356Z,99.99
2019-01-03T14:13:35.414Z,99.99
2019-01-03T14:14:45.210Z,99.99
2019-01-03T14:15:55.291Z,99.99
2019-01-03T14:17:05.096Z,99.99
2019-01-03T14:18:14.895Z,99.99
2019-01-03T14:19:24.714Z,99.99
2019-01-03T14:20:34.791Z,99.99
2019-01-03T14:21:44.631Z,99.99
2019-01-03T14:22:54.451Z,99.99
2019-01-03T14:24:05.688Z,99.99
2019-01-03T14:25:15.849Z,99.99
2019-01-03T14:26:25.676Z,99.99
2019-01-03T14:27:35.548Z,99.99
2019-01-03T14:28:45.615Z,99.99
2019-01-03T14:29:55.677Z,99.99
2019-01-03T14:31:05.751Z,99.99
2019-01-03T14:32:15.816Z,99.99
2019-01-03T14:33:25.863Z,99.99
2019-01-03T14:34:36.004Z,99.99
2019-01-03T14:35:45.823Z,99.99
2019-01-03T14:36:55.952Z,99.99
2019-01-03T14:38:06.514Z,99.99
2019-01-03T14:39:16.588Z,99.99
2019-01-03T14:40:26.677Z,99.99
2019-01-03T14:41:36.743Z,99.99
2019-01-03T14:42:46.528Z,99.99
2019-01-03T14:43:56.569Z,99.99
2019-01-03T14:45:06.649Z,99.99
2019-01-03T14:46:16.464Z,99.99
2019-01-03T14:47:26.521Z,99.99
2019-01-03T14:48:36.573Z,99.99
2019-01-03T14:49:46.664Z,99.99
2019-01-03T14:50:56.725Z,99.99
2019-01-03T14:52:06.792Z,99.99
2019-01-03T14:53:16.847Z,99.99
2019-01-03T14:54:26.639Z,99.99
2019-01-03T14:55:36.719Z,99.99
2019-01-03T14:56:46.797Z,99.99
2019-01-03T14:57:56.869Z,99.99
2019-01-03T14:59:06.932Z,99.99
2019-01-03T15:00:17.056Z,99.99
2019-01-03T15:01:27.139Z,99.99
2019-01-03T15:02:37.233Z,99.99
2019-01-03T15:03:47.295Z,99.99
2019-01-03T15:04:57.396Z,99.99
2019-01-03T15:06:07.472Z,99.99
2019-01-03T15:07:17.580Z,99.99
2019-01-03T15:08:27.408Z,99.99
2019-01-03T15:09:37.503Z,99.99
2019-01-03T15:10:47.067Z,99.99
2019-01-03T15:11:57.142Z,99.99
2019-01-03T15:13:07.335Z,99.99
2019-01-03T15:14:17.414Z,99.99
2019-01-03T15:15:27.511Z,99.99
2019-01-03T15:16:37.611Z,99.99
2019-01-03T15:17:47.458Z,99.99
2019-01-03T15:18:57.264Z,99.99
2019-01-03T15:20:07.354Z,99.99
2019-01-03T15:21:17.430Z,99.99
2019-01-03T15:22:27.504Z,99.99
2019-01-03T15:23:37.569Z,99.99
2019-01-03T15:24:47.650Z,99.99
2019-01-03T15:25:57.715Z,99.99
2019-01-03T15:27:07.538Z,99.99
2019-01-03T15:28:17.329Z,99.99
2019-01-03T15:29:27.407Z,99.99
2019-01-03T15:30:37.494Z,99.99
2019-01-03T15:31:47.579Z,99.99
2019-01-03T15:32:57.655Z,99.99
2019-01-03T15:34:07.449Z,99.99